createdAt,value
2023-08-12T00:00:45.543Z,21.70
2023-08-12T00:03:33.971Z,22.13
2023-08-12T00:06:06.424Z,21.55
2023-08-12T00:08:36.441Z,20.44
2023-08-12T00:11:04.343Z,19.53
2023-08-12T00:13:35.956Z,19.23
2023-08-12T00:16:04.686Z,20.15
2023-08-12T00:18:37.860Z,21.00
2023-08-12T00:21:11.449Z,21.53
2023-08-12T00:23:44.101Z,21.88
2023-08-12T00:26:13.230Z,22.21
2023-08-12T00:28:43.330Z,22.21
2023-08-12T00:31:11.785Z,21.26
2023-08-12T00:33:40.186Z,20.31
2023-08-12T00:36:08.075Z,19.86
2023-08-12T00:38:37.335Z,20.65
2023-08-12T00:41:06.697Z,21.34
2023-08-12T00:43:34.689Z,21.79
2023-08-12T00:46:03.707Z,21.77
2023-08-12T00:48:31.981Z,20.84
2023-08-12T00:51:00.695Z,19.88
2023-08-12T00:53:29.773Z,19.51
2023-08-12T00:56:04.125Z,20.67
2023-08-12T00:58:34.724Z,21.47
2023-08-12T01:01:03.282Z,21.93
2023-08-12T01:03:33.469Z,22.30
2023-08-12T01:06:03.885Z,22.20
2023-08-12T01:08:33.829Z,21.15
2023-08-12T01:11:30.643Z,20.10
2023-08-12T01:14:11.311Z,19.73
2023-08-12T01:16:48.480Z,20.72
2023-08-12T01:19:36.926Z,21.43
2023-08-12T01:22:11.383Z,21.91
2023-08-12T01:24:45.925Z,22.20
2023-08-12T01:27:16.396Z,21.85
2023-08-12T01:29:51.023Z,20.75
2023-08-12T01:33:05.597Z,19.77
2023-08-12T01:36:04.411Z,19.73
2023-08-12T01:38:35.236Z,21.07
2023-08-12T01:41:04.011Z,21.70
2023-08-12T01:43:34.580Z,22.15
2023-08-12T01:46:04.254Z,22.22
2023-08-12T01:48:33.215Z,21.30
2023-08-12T01:51:02.130Z,20.28
2023-08-12T01:53:30.125Z,19.89
2023-08-12T01:56:01.267Z,21.10
2023-08-12T01:58:31.317Z,21.65
2023-08-12T02:01:00.389Z,21.89
2023-08-12T02:03:30.209Z,22.20
2023-08-12T02:05:58.063Z,22.43
2023-08-12T02:08:27.128Z,21.74
2023-08-12T02:10:57.672Z,20.57
2023-08-12T02:13:25.850Z,20.18
2023-08-12T02:15:54.256Z,21.22
2023-08-12T02:18:22.684Z,21.94
2023-08-12T02:20:53.115Z,22.36
2023-08-12T02:23:20.931Z,22.36
2023-08-12T02:25:49.554Z,21.44
2023-08-12T02:28:17.879Z,20.45
2023-08-12T02:30:46.756Z,20.16
2023-08-12T02:33:15.219Z,21.58
2023-08-12T02:35:43.940Z,22.76
2023-08-12T02:38:12.277Z,22.63
2023-08-12T02:40:41.487Z,21.48
2023-08-12T02:43:11.509Z,20.47
2023-08-12T02:45:40.124Z,20.25
2023-08-12T02:48:08.316Z,21.63
2023-08-12T02:50:36.496Z,22.77
2023-08-12T02:53:06.108Z,23.06
2023-08-12T02:55:35.226Z,21.95
2023-08-12T02:58:06.038Z,20.76
2023-08-12T03:00:34.017Z,20.33
2023-08-12T03:03:02.427Z,21.55
2023-08-12T03:05:32.120Z,22.56
2023-08-12T03:08:02.654Z,22.77
2023-08-12T03:10:31.642Z,21.79
2023-08-12T03:13:00.240Z,20.74
2023-08-12T03:15:28.224Z,19.94
2023-08-12T03:17:58.075Z,19.89
2023-08-12T03:20:26.197Z,21.54
2023-08-12T03:22:54.357Z,22.68
2023-08-12T03:25:24.507Z,22.96
2023-08-12T03:27:55.176Z,21.90
2023-08-12T03:30:23.409Z,20.76
2023-08-12T03:32:54.000Z,20.37
2023-08-12T03:35:22.103Z,21.80
2023-08-12T03:37:54.156Z,22.98
2023-08-12T03:40:21.989Z,23.07
2023-08-12T03:42:49.994Z,21.96
2023-08-12T03:45:19.168Z,20.89
2023-08-12T03:47:47.027Z,20.10
2023-08-12T03:50:16.244Z,20.06
2023-08-12T03:52:46.438Z,21.53
2023-08-12T03:55:14.634Z,22.49
2023-08-12T03:57:42.592Z,23.11
2023-08-12T04:00:13.223Z,22.96
2023-08-12T04:02:41.628Z,21.81
2023-08-12T04:05:11.636Z,20.74
2023-08-12T04:07:44.037Z,20.42
2023-08-12T04:10:13.270Z,21.74
2023-08-12T04:12:45.623Z,22.82
2023-08-12T04:15:14.701Z,22.83
2023-08-12T04:17:47.354Z,21.68
2023-08-12T04:20:16.549Z,20.52
2023-08-12T04:22:45.902Z,20.41
2023-08-12T04:25:16.162Z,21.44
2023-08-12T04:27:45.880Z,22.21
2023-08-12T04:30:15.625Z,22.58
2023-08-12T04:32:43.772Z,22.87
2023-08-12T04:35:13.764Z,22.79
2023-08-12T04:37:42.719Z,21.71
2023-08-12T04:40:12.540Z,20.70
2023-08-12T04:42:40.444Z,20.24
2023-08-12T04:45:09.557Z,21.00
2023-08-12T04:47:38.699Z,21.84
2023-08-12T04:50:07.731Z,22.39
2023-08-12T04:52:35.597Z,22.73
2023-08-12T04:55:05.761Z,22.95
2023-08-12T04:57:33.974Z,22.82
2023-08-12T05:00:03.659Z,21.80
2023-08-12T05:02:31.660Z,20.75
2023-08-12T05:04:59.915Z,20.24
2023-08-12T05:07:27.972Z,20.95
2023-08-12T05:09:56.003Z,21.77
2023-08-12T05:12:23.881Z,22.31
2023-08-12T05:14:53.554Z,22.70
2023-08-12T05:17:23.358Z,22.72
2023-08-12T05:19:51.891Z,21.79
2023-08-12T05:22:21.897Z,20.80
2023-08-12T05:24:50.361Z,20.33
2023-08-12T05:27:18.455Z,21.08
2023-08-12T05:29:47.760Z,21.89
2023-08-12T05:32:16.261Z,22.32
2023-08-12T05:34:44.377Z,22.36
2023-08-12T05:37:12.645Z,21.62
2023-08-12T05:39:41.791Z,20.63
2023-08-12T05:42:12.030Z,20.15
2023-08-12T05:44:43.492Z,20.96
2023-08-12T05:47:12.052Z,21.79
2023-08-12T05:49:41.219Z,22.36
2023-08-12T05:52:11.540Z,22.75
2023-08-12T05:54:40.995Z,22.67
2023-08-12T05:57:09.502Z,21.73
2023-08-12T05:59:39.643Z,20.75
2023-08-12T06:02:07.657Z,20.34
2023-08-12T06:04:36.870Z,21.10
2023-08-12T06:07:04.946Z,21.91
2023-08-12T06:09:33.288Z,22.51
2023-08-12T06:12:01.733Z,22.92
2023-08-12T06:14:29.674Z,23.22
2023-08-12T06:17:00.005Z,22.89
2023-08-12T06:19:30.607Z,21.76
2023-08-12T06:22:03.654Z,21.16
2023-08-12T06:24:33.462Z,21.75
2023-08-12T06:27:01.396Z,22.33
2023-08-12T06:29:30.510Z,22.69
2023-08-12T06:31:59.115Z,22.72
2023-08-12T06:34:28.853Z,21.86
2023-08-12T06:36:57.986Z,21.13
2023-08-12T06:39:27.117Z,21.62
2023-08-12T06:41:57.130Z,22.36
2023-08-12T06:44:27.177Z,22.90
2023-08-12T06:46:55.000Z,23.27
2023-08-12T06:49:22.883Z,23.40
2023-08-12T06:51:53.330Z,22.58
2023-08-12T06:54:24.096Z,21.59
2023-08-12T06:56:52.297Z,21.14
2023-08-12T06:59:21.537Z,21.94
2023-08-12T07:01:49.404Z,22.80
2023-08-12T07:04:17.760Z,23.33
2023-08-12T07:06:46.987Z,23.53
2023-08-12T07:09:15.337Z,22.76
2023-08-12T07:11:43.832Z,21.81
2023-08-12T07:14:11.720Z,21.54
2023-08-12T07:16:39.990Z,22.28
2023-08-12T07:19:08.036Z,23.01
2023-08-12T07:21:36.489Z,23.53
2023-08-12T07:24:08.169Z,23.38
2023-08-12T07:26:36.129Z,22.59
2023-08-12T07:29:04.926Z,21.87
2023-08-12T07:31:35.393Z,21.68
2023-08-12T07:34:03.222Z,22.62
2023-08-12T07:36:31.736Z,23.42
2023-08-12T07:39:00.174Z,23.87
2023-08-12T07:41:29.211Z,23.59
2023-08-12T07:43:59.996Z,22.60
2023-08-12T07:46:31.493Z,22.12
2023-08-12T07:48:59.674Z,22.80
2023-08-12T07:51:29.465Z,23.48
2023-08-12T07:53:57.419Z,23.68
2023-08-12T07:56:25.923Z,22.89
2023-08-12T07:58:54.609Z,22.06
2023-08-12T08:01:22.453Z,22.46
2023-08-12T08:03:54.496Z,22.93
2023-08-12T08:06:25.721Z,23.24
2023-08-12T08:08:54.733Z,23.28
2023-08-12T08:11:25.818Z,22.67
2023-08-12T08:13:53.831Z,21.87
2023-08-12T08:16:26.078Z,22.14
2023-08-12T08:18:54.615Z,22.94
2023-08-12T08:21:22.746Z,23.60
2023-08-12T08:23:51.819Z,23.65
2023-08-12T08:26:21.483Z,22.81
2023-08-12T08:28:52.748Z,21.94
2023-08-12T08:31:22.709Z,21.67
2023-08-12T08:33:52.321Z,22.60
2023-08-12T08:36:21.094Z,23.54
2023-08-12T08:38:52.714Z,24.08
2023-08-12T08:41:23.211Z,23.62
2023-08-12T08:43:58.941Z,22.67
2023-08-12T08:46:27.767Z,21.92
2023-08-12T08:49:01.444Z,22.36
2023-08-12T08:51:33.394Z,23.33
2023-08-12T08:54:05.470Z,24.00
2023-08-12T08:56:34.803Z,24.21
2023-08-12T08:59:08.951Z,23.50
2023-08-12T09:01:40.842Z,22.73
2023-08-12T09:04:09.795Z,22.44
2023-08-12T09:06:43.043Z,23.14
2023-08-12T09:09:18.700Z,23.82
2023-08-12T09:11:47.331Z,24.20
2023-08-12T09:14:17.455Z,23.48
2023-08-12T09:16:47.489Z,22.70
2023-08-12T09:19:16.108Z,22.51
2023-08-12T09:21:55.403Z,23.52
2023-08-12T09:24:30.937Z,24.33
2023-08-12T09:26:59.547Z,24.15
2023-08-12T09:29:33.743Z,23.31
2023-08-12T09:32:19.694Z,22.63
2023-08-12T09:34:57.767Z,22.60
2023-08-12T09:37:26.220Z,23.51
2023-08-12T09:39:55.826Z,23.99
2023-08-12T09:42:25.834Z,23.52
2023-08-12T09:44:59.168Z,22.68
2023-08-12T09:47:28.721Z,22.47
2023-08-12T09:49:57.378Z,23.38
2023-08-12T09:52:28.873Z,24.23
2023-08-12T09:55:00.738Z,24.29
2023-08-12T09:57:33.131Z,23.48
2023-08-12T10:00:04.687Z,22.99
2023-08-12T10:02:32.905Z,23.38
2023-08-12T10:05:05.640Z,24.51
2023-08-12T10:07:37.690Z,25.10
2023-08-12T10:10:08.692Z,24.53
2023-08-12T10:12:37.484Z,23.89
2023-08-12T10:15:07.722Z,23.42
2023-08-12T10:17:43.832Z,23.99
2023-08-12T10:20:23.827Z,24.96
2023-08-12T10:22:53.266Z,24.95
2023-08-12T10:25:25.209Z,24.42
2023-08-12T10:27:54.918Z,24.01
2023-08-12T10:30:22.761Z,23.71
2023-08-12T10:32:51.519Z,23.50
2023-08-12T10:35:19.882Z,23.80
2023-08-12T10:37:54.575Z,24.95
2023-08-12T10:40:24.324Z,25.41
2023-08-12T10:42:52.333Z,24.98
2023-08-12T10:45:20.582Z,24.60
2023-08-12T10:48:01.552Z,24.38
2023-08-12T10:50:33.174Z,24.24
2023-08-12T10:53:27.455Z,24.15
2023-08-12T10:56:04.885Z,24.10
2023-08-12T10:58:47.665Z,24.14
2023-08-12T11:01:22.981Z,24.16
2023-08-12T11:03:51.780Z,24.17
2023-08-12T11:06:22.994Z,24.20
2023-08-12T11:08:54.942Z,24.27
2023-08-12T11:11:27.016Z,24.27
2023-08-12T11:13:58.871Z,24.23
2023-08-12T11:16:39.677Z,24.29
2023-08-12T11:19:10.071Z,24.31
2023-08-12T11:21:38.223Z,24.25
2023-08-12T11:24:06.902Z,24.28
2023-08-12T11:26:36.304Z,24.37
2023-08-12T11:29:13.030Z,24.51
2023-08-12T11:31:42.569Z,24.62
2023-08-12T11:34:11.457Z,24.69
2023-08-12T11:36:40.107Z,24.74
2023-08-12T11:39:09.087Z,24.80
2023-08-12T11:41:37.021Z,24.87
2023-08-12T11:44:05.954Z,24.90
2023-08-12T11:46:35.575Z,24.90
2023-08-12T11:49:03.711Z,24.94
2023-08-12T11:51:31.990Z,24.97
2023-08-12T11:54:01.243Z,25.01
2023-08-12T11:56:29.874Z,25.09
2023-08-12T11:58:58.605Z,25.18
2023-08-12T12:01:27.455Z,25.27
2023-08-12T12:03:56.177Z,25.33
2023-08-12T12:06:38.393Z,25.46
2023-08-12T12:09:13.888Z,25.61
2023-08-12T12:11:46.804Z,25.77
2023-08-12T12:14:15.912Z,25.88
2023-08-12T12:16:49.017Z,25.94
2023-08-12T12:19:23.964Z,26.01
2023-08-12T12:21:54.218Z,26.05
2023-08-12T12:24:23.125Z,26.10
2023-08-12T12:26:51.718Z,26.18
2023-08-12T12:29:20.657Z,26.24
2023-08-12T12:31:49.616Z,26.21
2023-08-12T12:34:19.272Z,26.16
2023-08-12T12:36:47.463Z,26.12
2023-08-12T12:39:16.517Z,26.02
2023-08-12T12:41:48.221Z,25.81
2023-08-12T12:44:17.158Z,25.69
2023-08-12T12:46:47.873Z,25.67
2023-08-12T12:49:16.718Z,25.51
2023-08-12T12:51:44.674Z,25.28
2023-08-12T12:54:15.442Z,25.06
2023-08-12T12:56:44.079Z,24.97
2023-08-12T12:59:16.778Z,25.06
2023-08-12T13:01:47.070Z,25.19
2023-08-12T13:04:17.110Z,25.30
2023-08-12T13:06:45.982Z,25.48
2023-08-12T13:09:15.439Z,25.69
2023-08-12T13:11:45.234Z,25.92
2023-08-12T13:14:13.643Z,26.03
2023-08-12T13:16:46.853Z,26.00
2023-08-12T13:19:17.574Z,25.94
2023-08-12T13:21:46.000Z,25.99
2023-08-12T13:24:16.172Z,26.14
2023-08-12T13:26:44.043Z,26.33
2023-08-12T13:29:12.144Z,26.48
2023-08-12T13:31:43.097Z,26.57
2023-08-12T13:34:12.871Z,26.70
2023-08-12T13:36:41.845Z,26.84
2023-08-12T13:39:10.101Z,26.92
2023-08-12T13:41:39.409Z,26.81
2023-08-12T13:44:10.260Z,26.60
2023-08-12T13:46:40.285Z,26.52
2023-08-12T13:49:08.874Z,26.51
2023-08-12T13:51:39.493Z,26.58
2023-08-12T13:54:10.503Z,26.69
2023-08-12T13:56:38.718Z,26.81
2023-08-12T13:59:06.976Z,26.77
2023-08-12T14:01:37.174Z,26.61
2023-08-12T14:04:07.544Z,26.51
2023-08-12T14:06:35.964Z,26.51
2023-08-12T14:09:04.031Z,26.59
2023-08-12T14:11:32.091Z,26.60
2023-08-12T14:14:00.757Z,26.52
2023-08-12T14:16:30.412Z,26.43
2023-08-12T14:18:58.874Z,26.32
2023-08-12T14:21:26.838Z,26.18
2023-08-12T14:23:58.079Z,26.12
2023-08-12T14:26:32.211Z,26.15
2023-08-12T14:29:02.810Z,26.11
2023-08-12T14:31:33.464Z,26.11
2023-08-12T14:34:10.223Z,26.23
2023-08-12T14:36:38.613Z,26.38
2023-08-12T14:39:06.986Z,26.51
2023-08-12T14:41:35.996Z,26.68
2023-08-12T14:44:06.697Z,26.83
2023-08-12T14:46:34.657Z,26.88
2023-08-12T14:49:02.920Z,26.88
2023-08-12T14:51:31.120Z,26.88
2023-08-12T14:53:59.105Z,26.84
2023-08-12T14:56:27.055Z,26.74
2023-08-12T14:58:56.678Z,26.62
2023-08-12T15:01:31.451Z,26.49
2023-08-12T15:03:59.687Z,26.37
2023-08-12T15:06:27.937Z,26.26
2023-08-12T15:08:56.073Z,26.14
2023-08-12T15:11:26.914Z,26.06
2023-08-12T15:13:57.482Z,26.03
2023-08-12T15:16:25.449Z,26.00
2023-08-12T15:18:54.031Z,26.00
2023-08-12T15:21:22.178Z,26.02
2023-08-12T15:23:56.462Z,26.07
2023-08-12T15:26:25.525Z,26.10
2023-08-12T15:28:53.418Z,26.08
2023-08-12T15:31:21.457Z,26.02
2023-08-12T15:33:50.217Z,25.92
2023-08-12T15:36:19.125Z,25.70
2023-08-12T15:38:49.133Z,25.41
2023-08-12T15:41:18.431Z,25.16
2023-08-12T15:43:46.839Z,24.97
2023-08-12T15:46:14.782Z,24.78
2023-08-12T15:48:44.528Z,24.57
2023-08-12T15:51:13.020Z,24.36
2023-08-12T15:53:42.469Z,24.13
2023-08-12T15:56:10.351Z,23.94
2023-08-12T15:58:38.971Z,23.79
2023-08-12T16:01:07.799Z,23.64
2023-08-12T16:03:38.866Z,23.52
2023-08-12T16:06:09.767Z,23.41
2023-08-12T16:08:37.620Z,23.31
2023-08-12T16:11:06.043Z,23.18
2023-08-12T16:13:34.461Z,23.06
2023-08-12T16:16:04.120Z,22.97
2023-08-12T16:18:35.192Z,22.88
2023-08-12T16:21:03.701Z,22.79
2023-08-12T16:23:35.257Z,22.73
2023-08-12T16:26:03.941Z,22.67
2023-08-12T16:28:34.737Z,22.62
2023-08-12T16:31:04.557Z,22.58
2023-08-12T16:33:34.623Z,22.50
2023-08-12T16:36:03.579Z,22.36
2023-08-12T16:38:31.448Z,22.26
2023-08-12T16:40:59.692Z,22.18
2023-08-12T16:43:27.712Z,22.10
2023-08-12T16:45:56.440Z,22.03
2023-08-12T16:48:28.534Z,21.98
2023-08-12T16:50:57.809Z,21.91
2023-08-12T16:53:26.143Z,21.86
2023-08-12T16:55:56.123Z,21.84
2023-08-12T16:58:24.648Z,21.85
2023-08-12T17:00:52.467Z,21.86
2023-08-12T17:03:21.766Z,21.88
2023-08-12T17:05:50.207Z,21.92
2023-08-12T17:08:18.084Z,21.94
2023-08-12T17:10:49.428Z,21.95
2023-08-12T17:13:17.441Z,21.94
2023-08-12T17:15:47.063Z,21.90
2023-08-12T17:18:16.928Z,21.86
2023-08-12T17:20:45.079Z,21.84
2023-08-12T17:23:13.455Z,21.82
2023-08-12T17:25:41.333Z,21.80
2023-08-12T17:28:09.169Z,21.78
2023-08-12T17:30:37.363Z,21.75
2023-08-12T17:33:05.668Z,21.73
2023-08-12T17:35:34.077Z,21.69
2023-08-12T17:38:02.275Z,21.66
2023-08-12T17:40:30.296Z,21.63
2023-08-12T17:42:58.324Z,21.61
2023-08-12T17:45:28.722Z,21.56
2023-08-12T17:47:59.702Z,21.51
2023-08-12T17:50:28.327Z,21.45
2023-08-12T17:52:57.104Z,21.39
2023-08-12T17:55:25.147Z,21.24
2023-08-12T17:57:53.501Z,21.11
2023-08-12T18:00:24.491Z,21.02
2023-08-12T18:02:52.551Z,20.93
2023-08-12T18:05:21.267Z,20.83
2023-08-12T18:07:49.168Z,20.75
2023-08-12T18:10:18.658Z,20.66
2023-08-12T18:12:46.623Z,20.86
2023-08-12T18:15:15.817Z,22.11
2023-08-12T18:17:44.195Z,23.03
2023-08-12T18:20:13.806Z,22.62
2023-08-12T18:22:44.985Z,22.03
2023-08-12T18:25:13.746Z,21.55
2023-08-12T18:27:41.631Z,21.19
2023-08-12T18:30:10.266Z,20.93
2023-08-12T18:32:40.141Z,21.01
2023-08-12T18:35:08.609Z,22.24
2023-08-12T18:37:36.637Z,23.14
2023-08-12T18:40:05.922Z,22.72
2023-08-12T18:42:33.796Z,22.08
2023-08-12T18:45:02.649Z,21.58
2023-08-12T18:47:34.058Z,21.22
2023-08-12T18:50:04.493Z,20.94
2023-08-12T18:52:32.402Z,21.04
2023-08-12T18:55:00.564Z,22.21
2023-08-12T18:57:29.848Z,22.98
2023-08-12T18:59:58.807Z,22.59
2023-08-12T19:02:26.758Z,21.97
2023-08-12T19:04:57.240Z,21.48
2023-08-12T19:07:25.655Z,21.11
2023-08-12T19:09:53.586Z,20.82
2023-08-12T19:12:26.358Z,20.56
2023-08-12T19:14:54.147Z,20.34
2023-08-12T19:17:23.491Z,20.17
2023-08-12T19:19:52.137Z,20.01
2023-08-12T19:22:20.612Z,19.88
2023-08-12T19:24:52.677Z,19.78
2023-08-12T19:27:20.588Z,19.68
2023-08-12T19:29:50.889Z,19.90
2023-08-12T19:32:20.646Z,21.25
2023-08-12T19:34:50.538Z,22.23
2023-08-12T19:37:21.808Z,21.91
2023-08-12T19:39:49.687Z,21.29
2023-08-12T19:42:17.691Z,20.78
2023-08-12T19:44:46.649Z,20.45
2023-08-12T19:47:20.304Z,20.20
2023-08-12T19:49:48.410Z,19.99
2023-08-12T19:52:17.447Z,19.81
2023-08-12T19:54:45.390Z,19.98
2023-08-12T19:57:16.092Z,21.28
2023-08-12T19:59:46.668Z,22.49
2023-08-12T20:02:28.420Z,22.98
2023-08-12T20:05:04.023Z,22.14
2023-08-12T20:07:32.957Z,21.43
2023-08-12T20:10:01.934Z,20.92
2023-08-12T20:12:30.861Z,20.51
2023-08-12T20:14:59.575Z,20.19
2023-08-12T20:17:27.859Z,19.92
2023-08-12T20:19:57.096Z,20.03
2023-08-12T20:22:25.288Z,21.19
2023-08-12T20:24:53.692Z,22.09
2023-08-12T20:27:24.008Z,21.66
2023-08-12T20:29:52.150Z,20.95
2023-08-12T20:32:20.066Z,20.47
2023-08-12T20:34:49.122Z,20.10
2023-08-12T20:37:19.436Z,19.80
2023-08-12T20:39:47.443Z,20.06
2023-08-12T20:42:15.384Z,21.34
2023-08-12T20:44:43.747Z,22.12
2023-08-12T20:47:12.211Z,21.67
2023-08-12T20:49:45.069Z,21.05
2023-08-12T20:52:14.291Z,20.56
2023-08-12T20:54:42.438Z,20.17
2023-08-12T20:57:15.766Z,19.85
2023-08-12T20:59:47.630Z,19.96
2023-08-12T21:02:17.088Z,21.30
2023-08-12T21:04:46.644Z,22.42
2023-08-12T21:07:15.072Z,22.79
2023-08-12T21:09:44.744Z,22.06
2023-08-12T21:12:13.706Z,21.34
2023-08-12T21:14:43.337Z,20.77
2023-08-12T21:17:11.412Z,20.30
2023-08-12T21:19:39.930Z,20.20
2023-08-12T21:22:09.693Z,21.30
2023-08-12T21:24:37.481Z,22.35
2023-08-12T21:27:08.930Z,23.03
2023-08-12T21:29:36.905Z,23.24
2023-08-12T21:32:06.528Z,22.49
2023-08-12T21:34:39.362Z,21.67
2023-08-12T21:37:07.202Z,21.03
2023-08-12T21:39:35.759Z,20.54
2023-08-12T21:42:04.237Z,20.42
2023-08-12T21:44:32.943Z,21.44
2023-08-12T21:47:00.849Z,22.48
2023-08-12T21:49:30.931Z,22.76
2023-08-12T21:51:58.932Z,21.96
2023-08-12T21:54:26.742Z,21.13
2023-08-12T21:56:55.009Z,20.50
2023-08-12T21:59:23.320Z,20.36
2023-08-12T22:01:51.214Z,21.28
2023-08-12T22:04:20.423Z,22.18
2023-08-12T22:06:48.833Z,22.80
2023-08-12T22:09:19.165Z,22.78
2023-08-12T22:11:47.969Z,21.86
2023-08-12T22:14:17.183Z,20.86
2023-08-12T22:16:53.679Z,20.07
2023-08-12T22:19:25.245Z,20.07
2023-08-12T22:22:02.586Z,21.03
2023-08-12T22:24:42.860Z,21.84
2023-08-12T22:27:13.580Z,22.29
2023-08-12T22:29:42.679Z,22.33
2023-08-12T22:32:10.628Z,21.45
2023-08-12T22:34:39.569Z,20.58
2023-08-12T22:37:07.388Z,19.94
2023-08-12T22:39:35.761Z,19.84
2023-08-12T22:42:04.193Z,20.82
2023-08-12T22:44:32.064Z,21.64
2023-08-12T22:47:00.499Z,22.22
2023-08-12T22:49:30.980Z,22.58
2023-08-12T22:51:59.138Z,22.88
2023-08-12T22:54:27.223Z,23.20
2023-08-12T22:56:55.367Z,23.05
2023-08-12T22:59:23.617Z,22.03
2023-08-12T23:01:51.876Z,21.00
2023-08-12T23:04:21.474Z,20.23
2023-08-12T23:06:50.317Z,20.77
2023-08-12T23:09:20.350Z,21.66
2023-08-12T23:11:49.062Z,22.29
2023-08-12T23:14:16.814Z,22.72
2023-08-12T23:16:46.896Z,23.01
2023-08-12T23:19:14.758Z,22.97
2023-08-12T23:21:47.608Z,22.00
2023-08-12T23:24:19.504Z,20.94
2023-08-12T23:26:50.291Z,20.49
2023-08-12T23:29:20.022Z,21.34
2023-08-12T23:31:49.578Z,22.21
2023-08-12T23:34:17.408Z,22.76
2023-08-12T23:36:45.241Z,23.10
2023-08-12T23:39:15.544Z,23.32
2023-08-12T23:41:48.716Z,23.24
2023-08-12T23:44:17.728Z,22.27
2023-08-12T23:46:48.369Z,21.33
2023-08-12T23:49:17.956Z,20.60
2023-08-12T23:51:47.047Z,20.32
2023-08-12T23:54:16.139Z,21.30
2023-08-12T23:56:44.171Z,22.15
2023-08-12T23:59:12.817Z,22.62
